Flight Track Log - Related Links

Times and Time Zones

All times are in EDT time to prevent confusion due to time zone crossing. See the SWA3206 flight status page for this flight to view local times or setup timezone preferences in your user account.

Time Position Orientation Groundspeed Altitude Reporting Facility
EDT Latitude Longitude Course Direction KTS MPH feet Rate Location/Type
Fri 11:27:47 AM 39.8833 -75.2167 90° East 145 167 900  Level Philadelphia TRACON
Fri 11:28:23 AM 39.8833 -75.1833 90° East 157 181 2,100 2,375 Climbing Philadelphia TRACON
Fri 11:29:23 AM 39.9167 -75.1333 49° Northeast 212 244 4,700 2,700 Climbing Philadelphia TRACON
Fri 11:30:23 AM 39.9833 -75.1333 360° North 252 290 7,500 2,650 Climbing Philadelphia TRACON
Fri 11:31:23 AM 40.0333 -75.2167 308° West 315 362 10,000 1,731 Climbing Philadelphia TRACON
Fri 11:32:59 AM 40.1094 -75.3658 304° West 350 403 12,000 1,154 Climbing New York Center
Fri 11:33:59 AM 40.1758 -75.4814 307° West 350 403 13,000 500 Climbing New York Center
Fri 11:34:59 AM 40.2325 -75.5750 308° West 357 411 13,000 407 Level New York Center
Fri 11:35:57 AM 40.2972 -75.6722 311° West 357 411 13,800 2,017 Climbing New York Center
Fri 11:36:58 AM 40.3697 -75.7808 311° West 362 417 17,000 1,587 Climbing New York Center
Fri 11:37:58 AM 40.4342 -75.8864 309° West 367 422 17,000  Level New York Center
Fri 11:38:57 AM 40.4617 -76.0194 285° West 377 434 17,000 150 Level New York Center
Fri 11:39:58 AM 40.4811 -76.1436 282° West 371 427 17,300 645 Climbing New York Center
Fri 11:40:58 AM 40.5036 -76.2875 282° West 392 451 18,300 1,537 Climbing New York Center
Fri 11:41:59 AM 40.5225 -76.4144 281° West 399 459 20,400 2,773 Climbing New York Center
Fri 11:42:57 AM 40.5453 -76.5886 280° West 399 459 23,800 2,746 Climbing New York Center
Fri 11:43:57 AM 40.5692 -76.7381 282° West 411 473 25,800 1,884 Climbing New York Center
Fri 11:44:58 AM 40.5886 -76.8875 280° West 416 479 27,600 1,785 Climbing New York Center
Fri 11:45:58 AM 40.6136 -77.0483 282° West 427 491 29,400 1,750 Climbing New York Center
Fri 11:46:58 AM 40.6361 -77.2089 281° West 439 505 31,100 5,256 Climbing New York Center
Fri 11:47:59 AM 40.6589 -77.3672 281° West 445 512 40,000 1,636 Climbing New York Center
Fri 11:48:59 AM 40.6811 -77.5253 281° West 445 512 34,400 -777 Descending New York Center
Fri 11:51:12 AM 40.7294 -77.8842 280° West 460 529 37,500 1,306 Climbing Cleveland Center
Fri 11:52:12 AM 40.7497 -78.0394 280° West 444 511 38,600 1,050 Climbing Cleveland Center
Fri 11:53:12 AM 40.7697 -78.1978 280° West 444 511 39,600 700 Climbing Cleveland Center
Fri 11:54:12 AM 40.7897 -78.3536 280° West 444 511 40,000 200 Climbing Cleveland Center
Fri 11:55:12 AM 40.8092 -78.5092 279° West 444 511 40,000  Level Cleveland Center
Fri 11:56:12 AM 40.8308 -78.6678 280° West 444 511 40,000  Level Cleveland Center
Fri 11:57:12 AM 40.8500 -78.8236 279° West 444 511 40,000  Level Cleveland Center
Fri 11:58:12 AM 40.8731 -78.9794 281° West 444 511 40,000  Level Cleveland Center
Fri 11:59:12 AM 40.8919 -79.1356 279° West 444 511 40,000  Level Cleveland Center
Fri 12:00:12 PM 40.9103 -79.2917 279° West 444 511 40,000  Level Cleveland Center
Fri 12:01:12 PM 40.9308 -79.4453 280° West 444 511 40,000  Level Cleveland Center
Fri 12:02:12 PM 40.9489 -79.6017 279° West 444 511 40,000  Level Cleveland Center
Fri 12:03:12 PM 40.9669 -79.7553 279° West 438 504 40,000  Level Cleveland Center
Fri 12:04:12 PM 40.9844 -79.9064 279° West 433 498 40,000  Level Cleveland Center
Fri 12:05:12 PM 41.0019 -80.0603 279° West 428 493 40,000  Level Cleveland Center
Fri 12:06:12 PM 41.0192 -80.2117 279° West 428 493 40,000  Level Cleveland Center
Fri 12:07:12 PM 41.0383 -80.3656 279° West 428 493 40,000  Level Cleveland Center
Fri 12:08:12 PM 41.0553 -80.5197 278° West 428 493 40,000  Level Cleveland Center
Fri 12:09:12 PM 41.0719 -80.6767 278° West 428 493 40,000  Level Cleveland Center
Fri 12:10:11 PM 41.0883 -80.8311 278° West 428 493 40,000  Level Cleveland Center
Fri 12:11:12 PM 41.1044 -80.9881 278° West 428 493 40,000  Level Cleveland Center
Fri 12:12:12 PM 41.1186 -81.1289 278° West 428 493 40,000  Level Cleveland Center
Fri 12:13:11 PM 41.1322 -81.2833 277° West 428 493 40,000  Level Cleveland Center
Fri 12:14:12 PM 41.1542 -81.4519 280° West 428 493 40,000  Level Cleveland Center
Fri 12:15:12 PM 41.1694 -81.6147 277° West 428 493 40,000  Level Cleveland Center
Fri 12:16:12 PM 41.1847 -81.7694 278° West 428 493 40,000  Level Cleveland Center
Fri 12:17:12 PM 41.2017 -81.9217 278° West 428 493 40,000  Level Cleveland Center
Fri 12:18:12 PM 41.2183 -82.0819 278° West 428 493 40,000  Level Cleveland Center
Fri 12:19:12 PM 41.2286 -82.2453 275° West 436 502 40,000  Level Cleveland Center
Fri 12:20:12 PM 41.2431 -82.4056 277° West 441 507 40,000  Level Cleveland Center
Fri 12:21:12 PM 41.2572 -82.5442 278° West 446 513 40,000  Level Cleveland Center
Fri 12:22:12 PM 41.2711 -82.7022 277° West 441 507 40,000  Level Cleveland Center
Fri 12:23:12 PM 41.2847 -82.8600 277° West 441 507 40,000  Level Cleveland Center
Fri 12:24:12 PM 41.2900 -83.0150 273° West 436 502 40,000  Level Cleveland Center
Fri 12:25:12 PM 41.2928 -83.1728 271° West 431 496 40,000  Level Cleveland Center
Fri 12:26:12 PM 41.2933 -83.3275 270° West 431 496 40,000  Level Cleveland Center
Fri 12:27:12 PM 41.2997 -83.4853 273° West 426 490 40,000  Level Cleveland Center
Fri 12:28:12 PM 41.3042 -83.6403 272° West 426 490 40,000 -500 Level Cleveland Center
Fri 12:29:12 PM 41.3186 -83.7958 277° West 426 490 39,000 -950 Descending Cleveland Center
Fri 12:30:12 PM 41.3392 -83.9464 280° West 426 490 38,100 -950 Descending Cleveland Center
Fri 12:31:12 PM 41.3511 -84.1075 276° West 426 490 37,100 -1,026 Descending Cleveland Center
Fri 12:31:28 PM 41.3583 -84.1592 281° West 425 489 36,800 -1,000 Descending Chicago Center
Fri 12:32:30 PM 41.3739 -84.3128 278° West 420 483 35,800 -1,707 Descending Chicago Center
Fri 12:33:31 PM 41.3883 -84.4694 277° West 427 491 33,300 -2,293 Descending Chicago Center
Fri 12:34:33 PM 41.4036 -84.6244 278° West 426 490 31,100 -1,597 Descending Chicago Center
Fri 12:35:35 PM 41.4189 -84.7872 277° West 441 507 30,000 -871 Descending Chicago Center
Fri 12:36:37 PM 41.4339 -84.9572 277° West 459 528 29,300 -871 Descending Chicago Center
Fri 12:37:39 PM 41.4519 -85.1639 277° West 466 536 28,200 -1,016 Descending Chicago Center
Fri 12:38:41 PM 41.4661 -85.3392 276° West 470 541 27,200 -1,415 Descending Chicago Center
Fri 12:39:42 PM 41.4817 -85.5131 277° West 464 534 25,300 -2,195 Descending Chicago Center
Fri 12:40:44 PM 41.4956 -85.6772 276° West 440 506 22,700 -2,468 Descending Chicago Center
Fri 12:41:46 PM 41.5086 -85.8336 276° West 426 490 20,200 -2,323 Descending Chicago Center
Fri 12:42:48 PM 41.5214 -85.9839 277° West 410 472 17,900 -2,323 Descending Chicago Center
Fri 12:43:50 PM 41.5242 -86.1303 272° West 400 460 15,400 -2,419 Descending Chicago Center
Fri 12:44:52 PM 41.5233 -86.2722 270° West 387 445 12,900 -2,129 Descending Chicago Center
Fri 12:45:54 PM 41.5222 -86.4086 269° West 375 432 11,000 -1,403 Descending Chicago Center
Fri 12:46:56 PM 41.5206 -86.5697 269° West 364 419 10,000 -488 Descending Chicago Center
Fri 12:47:57 PM 41.5200 -86.7031 270° West 361 415 10,000 -244 Level Chicago Center
Fri 12:48:59 PM 41.5189 -86.8236 269° West 321 369 9,500 -726 Descending Chicago Center
Fri 12:50:01 PM 41.5178 -86.9342 269° West 301 346 8,500 -968 Descending Chicago Center
Fri 12:51:03 PM 41.5169 -87.0414 269° West 293 337 7,500 -968 Descending Chicago Center
Fri 12:52:05 PM 41.5178 -87.1500 271° West 292 336 6,500 -1,059 Descending Chicago Center
Fri 12:52:28 PM 41.5167 -87.2167 269° West 292 336 6,000 -1,013 Descending Chicago TRACON
Fri 12:53:22 PM 41.5167 -87.3000 270° West 289 333 5,200 -891 Descending Chicago TRACON
Fri 12:54:09 PM 41.5139 -87.3828 267° West 289 333 4,500 -661 Descending Chicago Center
Fri 12:55:11 PM 41.5122 -87.4858 269° West 284 327 4,000 -242 Descending Chicago Center
Fri 12:56:13 PM 41.5106 -87.5856 269° West 278 320 4,000  Level Chicago Center
Fri 12:57:15 PM 41.5272 -87.6847 283° West 276 318 4,000 -532 Level Chicago Center
Fri 12:58:17 PM 41.5675 -87.7964 296° West 281 323 2,900 -726 Descending Chicago Center
Fri 12:59:19 PM 41.6122 -87.8739 308° West 274 315 2,500 -194 Descending Chicago Center
Fri 01:00:21 PM 41.6700 -87.8922 347° North 254 292 2,500 -51 Level Chicago Center
Fri 01:01:17 PM 41.7167 -87.8333 43° Northeast 193 222 2,400 -466 Descending Chicago TRACON
Fri 01:02:17 PM 41.7500 -87.8000 37° Northeast 140 161 1,600 -750 Descending Chicago TRACON
Fri 01:03:17 PM 41.7667 -87.7667 56° Northeast 128 147 900 -700 Descending Chicago TRACON
Fri 01:05:00 PM 41.7833 -87.7500 43° Northeast  Level FlightAware Approximate

Login

Don't have an account? Register now (free) for customized features, flight alerts, and more!